Time,TemperatureF,DewpointF,PressureIn,WindDirection,WindDirectionDegrees,WindSpeedMPH,WindSpeedGustMPH,Humidity,HourlyPrecipIn,Conditions,Clouds,dailyrainin,SoftwareType,DateUTC
2013-02-15 00:02:00,44.0,43.0,30.03,SSE,152,0.0,1.0,96,0.00,,,0.00,,2013-02-15 05:02:00,
2013-02-15 00:12:00,44.0,43.0,30.03,SSE,152,0.0,1.0,96,0.00,,,0.00,,2013-02-15 05:12:00,
2013-02-15 00:22:00,44.0,43.0,30.02,SSE,152,0.0,0.0,96,0.00,,,0.00,,2013-02-15 05:22:00,
2013-02-15 00:32:00,44.0,43.0,30.02,SSE,152,0.0,0.0,96,0.00,,,0.00,,2013-02-15 05:32:00,
2013-02-15 00:42:00,44.0,43.0,30.02,SSE,152,0.0,0.0,96,0.00,,,0.00,,2013-02-15 05:42:00,
2013-02-15 00:52:00,43.0,42.0,30.04,SSE,152,0.0,1.0,96,0.00,,,0.00,,2013-02-15 05:52:00,
2013-02-15 01:02:00,42.0,41.0,30.04,SSE,152,0.0,0.0,96,0.00,,,0.00,,2013-02-15 06:02:00,
2013-02-15 01:11:00,42.0,41.0,30.04,SSE,152,0.0,0.0,96,0.00,,,0.00,,2013-02-15 06:11:00,
2013-02-15 01:22:00,42.0,41.0,30.04,SSE,152,0.0,0.0,96,0.00,,,0.00,,2013-02-15 06:22:00,
2013-02-15 01:32:00,42.0,41.0,30.05,SSE,152,0.0,0.0,96,0.00,,,0.00,,2013-02-15 06:32:00,
2013-02-15 01:42:00,42.0,41.0,30.05,SSE,152,0.0,0.0,96,0.00,,,0.00,,2013-02-15 06:42:00,
2013-02-15 01:52:00,41.0,40.0,30.05,SSE,152,0.0,0.0,97,0.00,,,0.00,,2013-02-15 06:52:00,
2013-02-15 02:01:00,41.0,40.0,30.04,SSE,152,0.0,0.0,97,0.00,,,0.00,,2013-02-15 07:01:00,
2013-02-15 02:11:00,41.0,40.0,30.04,SSE,152,0.0,0.0,97,0.00,,,0.00,,2013-02-15 07:11:00,
2013-02-15 02:21:00,41.0,40.0,30.04,SSE,152,0.0,0.0,97,0.00,,,0.00,,2013-02-15 07:21:00,
2013-02-15 02:32:00,41.0,40.0,30.04,SSE,152,0.0,0.0,97,0.00,,,0.00,,2013-02-15 07:32:00,
2013-02-15 02:42:00,41.0,40.0,30.04,SSE,152,0.0,0.0,97,0.00,,,0.00,,2013-02-15 07:42:00,
2013-02-15 02:52:00,40.0,39.0,30.04,SSE,152,0.0,0.0,97,0.00,,,0.00,,2013-02-15 07:52:00,
2013-02-15 03:01:00,40.0,39.0,30.04,SSE,152,0.0,0.0,97,0.00,,,0.00,,2013-02-15 08:01:00,
2013-02-15 03:11:00,40.0,39.0,30.04,SSE,152,0.0,0.0,97,0.00,,,0.00,,2013-02-15 08:11:00,
2013-02-15 03:21:00,40.0,39.0,30.03,SSE,152,0.0,0.0,97,0.00,,,0.00,,2013-02-15 08:21:00,
2013-02-15 03:32:00,40.0,39.0,30.03,SSE,152,0.0,0.0,97,0.00,,,0.00,,2013-02-15 08:32:00,
2013-02-15 03:42:00,40.0,39.0,30.03,SSE,152,0.0,0.0,97,0.00,,,0.00,,2013-02-15 08:42:00,
2013-02-15 03:53:00,40.0,39.0,30.03,East,91,0.0,1.0,98,0.00,,,0.00,,2013-02-15 08:53:00,
2013-02-15 04:02:00,40.0,39.0,30.03,East,91,0.0,1.0,98,0.00,,,0.00,,2013-02-15 09:02:00,
2013-02-15 04:12:00,40.0,39.0,30.03,East,91,0.0,1.0,98,0.00,,,0.00,,2013-02-15 09:12:00,
2013-02-15 04:22:00,40.0,39.0,30.02,ENE,73,0.0,1.0,98,0.00,,,0.00,,2013-02-15 09:22:00,
2013-02-15 04:32:00,40.0,39.0,30.02,ENE,73,0.0,1.0,98,0.00,,,0.00,,2013-02-15 09:32:00,
2013-02-15 04:42:00,40.0,39.0,30.02,ENE,73,0.0,1.0,98,0.00,,,0.00,,2013-02-15 09:42:00,
2013-02-15 04:52:00,40.0,39.0,30.03,North,354,0.0,1.0,98,0.00,,,0.00,,2013-02-15 09:52:00,
2013-02-15 05:01:00,40.0,39.0,30.03,North,354,0.0,0.0,98,0.00,,,0.00,,2013-02-15 10:01:00,
2013-02-15 05:11:00,40.0,39.0,30.03,North,354,0.0,0.0,98,0.00,,,0.00,,2013-02-15 10:11:00,
2013-02-15 05:21:00,40.0,39.0,30.04,North,354,0.0,1.0,98,0.00,,,0.00,,2013-02-15 10:21:00,
2013-02-15 05:32:00,40.0,39.0,30.04,North,354,0.0,1.0,98,0.00,,,0.00,,2013-02-15 10:32:00,
2013-02-15 05:42:00,40.0,39.0,30.04,North,354,0.0,1.0,98,0.00,,,0.00,,2013-02-15 10:42:00,
2013-02-15 05:52:00,40.0,39.0,30.05,North,354,0.0,0.0,98,0.00,,,0.00,,2013-02-15 10:52:00,
2013-02-15 06:01:00,40.0,39.0,30.05,North,354,0.0,0.0,98,0.00,,,0.00,,2013-02-15 11:01:00,
2013-02-15 06:11:00,40.0,39.0,30.05,North,354,0.0,0.0,98,0.00,,,0.00,,2013-02-15 11:11:00,
2013-02-15 06:23:00,40.0,39.0,30.05,North,349,0.0,0.0,98,0.00,,,0.00,,2013-02-15 11:23:00,
2013-02-15 06:32:00,40.0,39.0,30.05,North,349,0.0,0.0,98,0.00,,,0.00,,2013-02-15 11:32:00,
2013-02-15 06:42:00,40.0,39.0,30.05,North,349,0.0,0.0,98,0.00,,,0.00,,2013-02-15 11:42:00,
2013-02-15 06:52:00,40.0,39.0,30.06,North,349,0.0,0.0,98,0.00,,,0.00,,2013-02-15 11:52:00,
2013-02-15 07:02:00,39.0,38.0,30.06,North,349,0.0,1.0,98,0.00,,,0.00,,2013-02-15 12:02:00,
2013-02-15 07:11:00,39.0,38.0,30.06,North,349,0.0,1.0,98,0.00,,,0.00,,2013-02-15 12:11:00,
2013-02-15 07:22:00,39.0,38.0,30.06,North,350,0.0,0.0,98,0.00,,,0.00,,2013-02-15 12:22:00,
2013-02-15 07:32:00,39.0,38.0,30.07,North,349,0.0,0.0,98,0.00,,,0.00,,2013-02-15 12:32:00,
2013-02-15 07:42:00,39.0,38.0,30.07,North,349,0.0,0.0,98,0.00,,,0.00,,2013-02-15 12:42:00,
2013-02-15 07:52:00,38.0,37.0,30.07,North,350,0.0,0.0,98,0.00,,,0.00,,2013-02-15 12:52:00,
2013-02-15 08:02:00,38.0,37.0,30.08,NNW,348,0.0,0.0,98,0.00,,,0.00,,2013-02-15 13:02:00,
2013-02-15 08:11:00,38.0,37.0,30.08,NNW,348,0.0,0.0,98,0.00,,,0.00,,2013-02-15 13:11:00,
2013-02-15 08:22:00,38.0,37.0,30.08,North,349,0.0,0.0,98,0.00,,,0.00,,2013-02-15 13:22:00,
2013-02-15 08:32:00,40.0,40.0,30.08,North,349,0.0,3.0,99,0.00,,,0.00,,2013-02-15 13:32:00,
2013-02-15 08:42:00,40.0,40.0,30.08,North,349,0.0,3.0,99,0.00,,,0.00,,2013-02-15 13:42:00,
2013-02-15 08:52:00,40.0,40.0,30.08,North,349,0.0,3.0,99,0.00,,,0.00,,2013-02-15 13:52:00,
2013-02-15 09:01:00,44.0,44.0,30.08,NNE,18,2.0,3.0,99,0.00,,,0.00,,2013-02-15 14:01:00,
2013-02-15 09:12:00,44.0,44.0,30.08,NNE,18,2.0,3.0,99,0.00,,,0.00,,2013-02-15 14:12:00,
2013-02-15 09:22:00,46.0,45.0,30.07,North,5,2.0,5.0,98,0.00,,,0.00,,2013-02-15 14:22:00,
2013-02-15 09:32:00,46.0,45.0,30.07,North,5,2.0,5.0,98,0.00,,,0.00,,2013-02-15 14:32:00,
2013-02-15 09:42:00,46.0,45.0,30.07,North,5,2.0,5.0,98,0.00,,,0.00,,2013-02-15 14:42:00,
2013-02-15 09:52:00,46.0,45.0,30.07,North,5,2.0,5.0,98,0.00,,,0.00,,2013-02-15 14:52:00,
2013-02-15 10:02:00,51.0,45.0,30.08,NNE,31,2.0,7.0,81,0.00,,,0.00,,2013-02-15 15:02:00,
2013-02-15 10:11:00,51.0,45.0,30.08,NNE,31,2.0,7.0,81,0.00,,,0.00,,2013-02-15 15:11:00,
2013-02-15 10:22:00,52.0,45.0,30.08,NNW,348,3.0,7.0,78,0.00,,,0.00,,2013-02-15 15:22:00,
2013-02-15 10:32:00,53.0,44.0,30.09,ENE,69,2.0,8.0,71,0.00,,,0.00,,2013-02-15 15:32:00,
2013-02-15 10:42:00,53.0,44.0,30.09,ENE,69,2.0,8.0,71,0.00,,,0.00,,2013-02-15 15:42:00,
2013-02-15 10:52:00,53.0,44.0,30.08,NNE,28,3.0,10.0,71,0.00,,,0.00,,2013-02-15 15:52:00,
2013-02-15 11:02:00,54.0,44.0,30.09,North,11,2.0,9.0,69,0.00,,,0.00,,2013-02-15 16:02:00,
2013-02-15 11:11:00,54.0,44.0,30.09,North,11,2.0,9.0,69,0.00,,,0.00,,2013-02-15 16:11:00,
2013-02-15 11:22:00,54.0,44.0,30.09,North,11,2.0,9.0,69,0.00,,,0.00,,2013-02-15 16:22:00,
2013-02-15 11:32:00,54.0,44.0,30.09,North,11,2.0,9.0,69,0.00,,,0.00,,2013-02-15 16:32:00,
2013-02-15 11:42:00,54.0,44.0,30.09,North,11,2.0,9.0,69,0.00,,,0.00,,2013-02-15 16:42:00,
2013-02-15 11:52:00,56.0,44.0,30.07,NNE,13,3.0,6.0,63,0.00,,,0.00,,2013-02-15 16:52:00,
2013-02-15 12:01:00,56.0,44.0,30.07,East,83,2.0,7.0,63,0.00,,,0.00,,2013-02-15 17:01:00,
2013-02-15 12:11:00,56.0,44.0,30.07,East,83,2.0,7.0,63,0.00,,,0.00,,2013-02-15 17:11:00,
2013-02-15 12:21:00,57.0,42.0,30.06,SSE,148,1.0,7.0,57,0.00,,,0.00,,2013-02-15 17:21:00,
2013-02-15 12:32:00,57.0,43.0,30.06,NE,39,3.0,5.0,59,0.00,,,0.00,,2013-02-15 17:32:00,
2013-02-15 12:42:00,57.0,43.0,30.06,NE,39,3.0,5.0,59,0.00,,,0.00,,2013-02-15 17:42:00,
2013-02-15 12:52:00,57.0,43.0,30.06,NE,39,3.0,5.0,59,0.00,,,0.00,,2013-02-15 17:52:00,
2013-02-15 13:01:00,57.0,43.0,30.06,NE,39,3.0,5.0,59,0.00,,,0.00,,2013-02-15 18:01:00,
2013-02-15 13:12:00,57.0,43.0,30.06,NE,39,3.0,5.0,59,0.00,,,0.00,,2013-02-15 18:12:00,
2013-02-15 13:22:00,59.0,44.0,30.04,ENE,75,2.0,7.0,57,0.00,,,0.00,,2013-02-15 18:22:00,
2013-02-15 13:32:00,59.0,43.0,30.03,SE,133,4.0,8.0,56,0.00,,,0.00,,2013-02-15 18:32:00,
2013-02-15 13:42:00,59.0,43.0,30.03,SE,133,4.0,8.0,56,0.00,,,0.00,,2013-02-15 18:42:00,
2013-02-15 13:53:00,58.0,42.0,30.03,SSE,160,3.0,7.0,56,0.00,,,0.00,,2013-02-15 18:53:00,
2013-02-15 14:02:00,58.0,42.0,30.03,SSE,160,3.0,7.0,56,0.00,,,0.00,,2013-02-15 19:02:00,
2013-02-15 14:11:00,58.0,42.0,30.03,SSE,160,3.0,7.0,56,0.00,,,0.00,,2013-02-15 19:11:00,
2013-02-15 14:22:00,58.0,43.0,30.01,East,88,5.0,9.0,57,0.00,,,0.00,,2013-02-15 19:22:00,
2013-02-15 14:32:00,58.0,43.0,30.01,ESE,113,3.0,7.0,58,0.00,,,0.00,,2013-02-15 19:32:00,
2013-02-15 14:42:00,58.0,43.0,30.01,ESE,113,3.0,7.0,58,0.00,,,0.00,,2013-02-15 19:42:00,
2013-02-15 14:52:00,58.0,42.0,30.00,South,174,5.0,9.0,56,0.00,,,0.00,,2013-02-15 19:52:00,
2013-02-15 15:01:00,58.0,42.0,30.00,South,174,5.0,9.0,56,0.00,,,0.00,,2013-02-15 20:01:00,
2013-02-15 15:11:00,58.0,42.0,30.00,South,174,5.0,9.0,56,0.00,,,0.00,,2013-02-15 20:11:00,
2013-02-15 15:21:00,57.0,42.0,29.98,SSE,161,1.0,8.0,58,0.00,,,0.00,,2013-02-15 20:21:00,
2013-02-15 15:32:00,57.0,42.0,29.98,South,189,2.0,8.0,58,0.00,,,0.00,,2013-02-15 20:32:00,
2013-02-15 15:42:00,57.0,42.0,29.98,South,189,2.0,8.0,58,0.00,,,0.00,,2013-02-15 20:42:00,
2013-02-15 15:52:00,57.0,42.0,29.98,SSW,192,2.0,9.0,58,0.00,,,0.00,,2013-02-15 20:52:00,
2013-02-15 16:02:00,57.0,42.0,29.98,SSW,192,2.0,9.0,58,0.00,,,0.00,,2013-02-15 21:02:00,
2013-02-15 16:11:00,57.0,42.0,29.98,SSW,192,2.0,9.0,58,0.00,,,0.00,,2013-02-15 21:11:00,
2013-02-15 16:22:00,57.0,43.0,29.98,SSE,151,3.0,9.0,60,0.00,,,0.00,,2013-02-15 21:22:00,
2013-02-15 16:32:00,57.0,43.0,29.97,South,178,2.0,7.0,59,0.00,,,0.00,,2013-02-15 21:32:00,
2013-02-15 16:42:00,57.0,43.0,29.97,South,178,2.0,7.0,59,0.00,,,0.00,,2013-02-15 21:42:00,
2013-02-15 16:52:00,56.0,42.0,29.98,SSE,165,1.0,9.0,59,0.00,,,0.00,,2013-02-15 21:52:00,
2013-02-15 17:02:00,56.0,42.0,29.98,SSE,165,1.0,9.0,59,0.00,,,0.00,,2013-02-15 22:02:00,
2013-02-15 17:11:00,56.0,42.0,29.98,SSE,165,1.0,9.0,59,0.00,,,0.00,,2013-02-15 22:11:00,
2013-02-15 17:22:00,55.0,42.0,29.97,SE,146,1.0,7.0,62,0.00,,,0.00,,2013-02-15 22:22:00,
2013-02-15 17:32:00,55.0,43.0,29.97,SSE,166,4.0,8.0,64,0.00,,,0.00,,2013-02-15 22:32:00,
2013-02-15 17:42:00,55.0,43.0,29.97,SSE,166,4.0,8.0,64,0.00,,,0.00,,2013-02-15 22:42:00,
2013-02-15 17:52:00,54.0,43.0,29.96,SE,143,1.0,5.0,67,0.00,,,0.00,,2013-02-15 22:52:00,
2013-02-15 18:02:00,54.0,44.0,29.96,SSE,158,2.0,3.0,69,0.00,,,0.00,,2013-02-15 23:02:00,
2013-02-15 18:11:00,54.0,44.0,29.96,SSE,158,2.0,3.0,69,0.00,,,0.00,,2013-02-15 23:11:00,
2013-02-15 18:21:00,53.0,43.0,29.97,SE,145,1.0,6.0,70,0.00,,,0.00,,2013-02-15 23:21:00,
2013-02-15 18:32:00,53.0,43.0,29.97,SE,145,1.0,6.0,70,0.00,,,0.00,,2013-02-15 23:32:00,
2013-02-15 18:42:00,53.0,43.0,29.97,SE,145,1.0,6.0,70,0.00,,,0.00,,2013-02-15 23:42:00,
2013-02-15 18:52:00,50.0,43.0,29.97,SSE,156,0.0,0.0,77,0.00,,,0.00,,2013-02-15 23:52:00,
2013-02-15 19:02:00,50.0,44.0,29.98,SSE,157,0.0,0.0,79,0.00,,,0.00,,2013-02-16 00:02:00,
2013-02-15 19:11:00,50.0,44.0,29.98,SSE,157,0.0,0.0,79,0.00,,,0.00,,2013-02-16 00:11:00,
2013-02-15 19:22:00,48.0,43.0,29.98,SSE,157,0.0,0.0,82,0.00,,,0.00,,2013-02-16 00:22:00,
2013-02-15 19:32:00,48.0,43.0,29.98,SSE,157,0.0,0.0,82,0.00,,,0.00,,2013-02-16 00:32:00,
2013-02-15 19:42:00,48.0,43.0,29.98,SSE,157,0.0,0.0,82,0.00,,,0.00,,2013-02-16 00:42:00,
2013-02-15 19:52:00,47.0,43.0,29.98,SSE,157,0.0,0.0,86,0.00,,,0.00,,2013-02-16 00:52:00,
2013-02-15 20:02:00,46.0,42.0,29.98,SSE,157,0.0,0.0,87,0.00,,,0.00,,2013-02-16 01:02:00,
2013-02-15 20:11:00,46.0,42.0,29.98,SSE,157,0.0,0.0,87,0.00,,,0.00,,2013-02-16 01:11:00,
2013-02-15 20:21:00,45.0,42.0,29.97,SSE,157,0.0,0.0,90,0.00,,,0.00,,2013-02-16 01:21:00,
2013-02-15 20:32:00,45.0,42.0,29.97,SSE,157,0.0,0.0,90,0.00,,,0.00,,2013-02-16 01:32:00,
2013-02-15 20:42:00,45.0,42.0,29.97,SSE,157,0.0,0.0,90,0.00,,,0.00,,2013-02-16 01:42:00,
2013-02-15 20:52:00,45.0,43.0,29.97,SSE,157,0.0,0.0,91,0.00,,,0.00,,2013-02-16 01:52:00,
2013-02-15 21:01:00,45.0,43.0,29.97,SSE,157,0.0,0.0,91,0.00,,,0.00,,2013-02-16 02:01:00,
2013-02-15 21:11:00,45.0,43.0,29.97,SSE,157,0.0,0.0,91,0.00,,,0.00,,2013-02-16 02:11:00,
2013-02-15 21:22:00,43.0,41.0,29.97,SSE,157,0.0,0.0,92,0.00,,,0.00,,2013-02-16 02:22:00,
2013-02-15 21:32:00,43.0,41.0,29.98,SSE,157,0.0,0.0,93,0.00,,,0.00,,2013-02-16 02:32:00,
2013-02-15 21:42:00,43.0,41.0,29.98,SSE,157,0.0,0.0,93,0.00,,,0.00,,2013-02-16 02:42:00,
2013-02-15 21:52:00,43.0,41.0,29.97,SSE,157,0.0,0.0,94,0.00,,,0.00,,2013-02-16 02:52:00,
2013-02-15 22:02:00,42.0,40.0,29.97,SSE,156,0.0,0.0,94,0.00,,,0.00,,2013-02-16 03:02:00,
2013-02-15 22:11:00,42.0,40.0,29.97,SSE,156,0.0,0.0,94,0.00,,,0.00,,2013-02-16 03:11:00,
2013-02-15 22:21:00,42.0,40.0,29.97,SSE,157,0.0,0.0,94,0.00,,,0.00,,2013-02-16 03:21:00,
2013-02-15 22:32:00,42.0,41.0,29.97,SSE,157,0.0,0.0,95,0.00,,,0.00,,2013-02-16 03:32:00,
2013-02-15 22:42:00,42.0,41.0,29.97,SSE,157,0.0,0.0,95,0.00,,,0.00,,2013-02-16 03:42:00,
2013-02-15 22:52:00,42.0,41.0,29.97,SSE,157,0.0,0.0,95,0.00,,,0.00,,2013-02-16 03:52:00,
2013-02-15 23:01:00,42.0,41.0,29.97,SSE,157,0.0,0.0,96,0.00,,,0.00,,2013-02-16 04:01:00,
2013-02-15 23:11:00,42.0,41.0,29.97,SSE,157,0.0,0.0,96,0.00,,,0.00,,2013-02-16 04:11:00,
2013-02-15 23:21:00,42.0,41.0,29.97,SSE,157,0.0,0.0,96,0.00,,,0.00,,2013-02-16 04:21:00,
2013-02-15 23:32:00,42.0,41.0,29.97,SSE,157,0.0,0.0,96,0.00,,,0.00,,2013-02-16 04:32:00,
2013-02-15 23:42:00,42.0,41.0,29.97,SSE,157,0.0,0.0,96,0.00,,,0.00,,2013-02-16 04:42:00,
2013-02-15 23:52:00,42.0,41.0,29.96,SSE,157,0.0,0.0,97,0.00,,,0.00,,2013-02-16 04:52:00,